createdAt,value
2017-09-24T00:00:37.854Z,93.93
2017-09-24T00:03:06.212Z,93.66
2017-09-24T00:05:34.579Z,93.92
2017-09-24T00:08:02.966Z,93.79
2017-09-24T00:10:31.325Z,92.89
2017-09-24T00:12:59.674Z,92.50
2017-09-24T00:15:28.036Z,92.28
2017-09-24T00:17:56.522Z,91.60
2017-09-24T00:20:24.879Z,91.24
2017-09-24T00:22:53.226Z,91.82
2017-09-24T00:25:21.578Z,92.32
2017-09-24T00:27:49.930Z,92.95
2017-09-24T00:30:18.430Z,93.60
2017-09-24T00:32:46.778Z,93.71
2017-09-24T00:35:15.139Z,94.02
2017-09-24T00:37:43.486Z,94.11
2017-09-24T00:40:11.842Z,94.04
2017-09-24T00:42:40.222Z,93.21
2017-09-24T00:45:08.571Z,92.74
2017-09-24T00:47:36.922Z,92.17
2017-09-24T00:50:05.275Z,92.06
2017-09-24T00:52:33.626Z,92.87
2017-09-24T00:55:01.993Z,93.07
2017-09-24T00:57:30.334Z,93.56
2017-09-24T00:59:58.822Z,93.70
2017-09-24T01:02:27.174Z,93.59
2017-09-24T01:04:55.526Z,93.85
2017-09-24T01:07:23.882Z,93.55
2017-09-24T01:09:52.235Z,92.40
2017-09-24T01:12:20.627Z,91.77
2017-09-24T01:14:48.986Z,92.30
2017-09-24T01:17:17.339Z,92.68
2017-09-24T01:19:45.692Z,93.33
2017-09-24T01:22:14.043Z,93.67
2017-09-24T01:24:42.418Z,94.02
2017-09-24T01:27:10.766Z,94.04
2017-09-24T01:29:39.162Z,94.05
2017-09-24T01:32:07.514Z,94.08
2017-09-24T01:34:35.862Z,94.35
2017-09-24T01:37:04.214Z,94.50
2017-09-24T01:39:32.567Z,94.34
2017-09-24T01:42:00.919Z,94.25
2017-09-24T01:44:29.275Z,94.34
2017-09-24T01:46:57.652Z,93.11
2017-09-24T01:49:26.005Z,92.83
2017-09-24T01:51:54.482Z,92.93
2017-09-24T01:54:22.841Z,93.10
2017-09-24T01:56:51.190Z,93.24
2017-09-24T01:59:19.552Z,93.42
2017-09-24T02:01:47.911Z,92.82
2017-09-24T02:04:16.395Z,93.04
2017-09-24T02:06:44.758Z,93.35
2017-09-24T02:09:13.107Z,93.79
2017-09-24T02:11:41.458Z,92.60
2017-09-24T02:14:09.810Z,91.78
2017-09-24T02:16:38.199Z,92.46
2017-09-24T02:19:06.551Z,93.12
2017-09-24T02:21:34.926Z,93.26
2017-09-24T02:24:03.266Z,93.71
2017-09-24T02:26:31.626Z,93.89
2017-09-24T02:29:00.102Z,94.06
2017-09-24T02:31:28.455Z,93.74
2017-09-24T02:33:56.807Z,93.89
2017-09-24T02:36:25.166Z,92.98
2017-09-24T02:38:53.518Z,92.66
2017-09-24T02:41:21.877Z,92.86
2017-09-24T02:43:50.228Z,92.89
2017-09-24T02:46:18.603Z,92.97
2017-09-24T02:48:46.958Z,92.38
2017-09-24T02:51:15.312Z,93.35
2017-09-24T02:53:43.658Z,93.48
2017-09-24T02:56:12.010Z,93.37
2017-09-24T02:58:40.362Z,93.03
2017-09-24T03:01:08.718Z,93.37
2017-09-24T03:03:37.203Z,93.83
2017-09-24T03:06:05.555Z,93.53
2017-09-24T03:08:33.918Z,93.08
2017-09-24T03:11:02.263Z,92.17
2017-09-24T03:13:30.611Z,92.43
2017-09-24T03:15:58.986Z,93.22
2017-09-24T03:18:27.343Z,93.43
2017-09-24T03:20:55.696Z,94.23
2017-09-24T03:23:24.054Z,94.30
2017-09-24T03:25:52.394Z,94.22
2017-09-24T03:28:20.747Z,93.52
2017-09-24T03:30:49.099Z,93.31
2017-09-24T03:33:17.609Z,93.21
2017-09-24T03:35:45.956Z,92.42
2017-09-24T03:38:14.303Z,93.00
2017-09-24T03:40:42.655Z,93.60
2017-09-24T03:43:11.006Z,93.73
2017-09-24T03:45:39.502Z,94.17
2017-09-24T03:48:07.854Z,93.44
2017-09-24T03:50:36.207Z,93.45
2017-09-24T03:53:04.555Z,92.61
2017-09-24T03:55:32.908Z,92.43
2017-09-24T03:58:01.306Z,93.10
2017-09-24T04:00:29.661Z,93.46
2017-09-24T04:02:58.012Z,93.31
2017-09-24T04:05:26.365Z,93.88
2017-09-24T04:07:55.022Z,93.50
2017-09-24T04:10:23.383Z,93.25
2017-09-24T04:12:51.735Z,93.57
2017-09-24T04:15:20.138Z,93.59
2017-09-24T04:17:48.526Z,93.84
2017-09-24T04:20:16.883Z,94.01
2017-09-24T04:22:45.229Z,94.17
2017-09-24T04:25:13.582Z,93.46
2017-09-24T04:27:42.062Z,92.61
2017-09-24T04:30:10.419Z,92.33
2017-09-24T04:32:38.770Z,91.67
2017-09-24T04:35:07.127Z,92.21
2017-09-24T04:37:35.474Z,92.55
2017-09-24T04:40:03.855Z,92.63
2017-09-24T04:42:32.202Z,92.99
2017-09-24T04:45:00.599Z,93.22
2017-09-24T04:47:28.957Z,93.66
2017-09-24T04:49:57.312Z,93.87
2017-09-24T04:52:25.664Z,93.88
2017-09-24T04:54:54.021Z,94.02
2017-09-24T04:57:22.398Z,93.97
2017-09-24T04:59:50.750Z,92.50
2017-09-24T05:02:19.109Z,91.75
2017-09-24T05:04:47.455Z,91.54
2017-09-24T05:07:15.802Z,91.84
2017-09-24T05:09:44.190Z,92.18
2017-09-24T05:12:12.536Z,92.67
2017-09-24T05:14:40.891Z,93.38
2017-09-24T05:17:09.239Z,93.32
2017-09-24T05:19:37.595Z,93.68
2017-09-24T05:22:06.078Z,93.99
2017-09-24T05:24:34.438Z,94.60
2017-09-24T05:27:02.790Z,94.54
2017-09-24T05:29:31.142Z,94.66
2017-09-24T05:31:59.495Z,94.83
2017-09-24T05:34:27.975Z,94.95
2017-09-24T05:36:56.339Z,95.08
2017-09-24T05:39:24.691Z,95.12
2017-09-24T05:41:53.045Z,94.33
2017-09-24T05:44:21.391Z,94.38
2017-09-24T05:46:49.774Z,94.49
2017-09-24T05:49:18.123Z,94.73
2017-09-24T05:51:46.507Z,94.48
2017-09-24T05:54:14.858Z,94.60
2017-09-24T05:56:43.246Z,94.70
2017-09-24T05:59:11.599Z,94.84
2017-09-24T06:01:39.966Z,94.95
2017-09-24T06:04:08.447Z,95.04
2017-09-24T06:06:36.801Z,94.86
2017-09-24T06:09:05.159Z,94.92
2017-09-24T06:11:33.515Z,94.84
2017-09-24T06:14:02.114Z,93.94
2017-09-24T06:16:31.283Z,93.71
2017-09-24T06:19:00.624Z,92.48
2017-09-24T06:21:30.045Z,93.41
2017-09-24T06:23:58.992Z,93.65
2017-09-24T06:26:27.779Z,93.78
2017-09-24T06:28:57.193Z,93.89
2017-09-24T06:31:26.255Z,93.64
2017-09-24T06:33:54.916Z,93.44
2017-09-24T06:36:23.625Z,93.50
2017-09-24T06:38:52.670Z,93.45
2017-09-24T06:41:21.558Z,93.45
2017-09-24T06:43:50.336Z,93.67
2017-09-24T06:46:19.931Z,93.82
2017-09-24T06:48:48.906Z,92.85
2017-09-24T06:51:17.972Z,91.42
2017-09-24T06:53:46.603Z,91.11
2017-09-24T06:56:15.546Z,91.54
2017-09-24T06:58:44.232Z,91.54
2017-09-24T07:01:13.178Z,91.89
2017-09-24T07:03:42.140Z,92.25
2017-09-24T07:06:10.801Z,92.15
2017-09-24T07:08:39.863Z,92.27
2017-09-24T07:11:08.587Z,92.26
2017-09-24T07:13:37.681Z,92.08
2017-09-24T07:16:06.989Z,91.39
2017-09-24T07:18:35.766Z,91.23
2017-09-24T07:21:04.699Z,90.59
2017-09-24T07:23:33.538Z,89.54
2017-09-24T07:26:02.610Z,89.96
2017-09-24T07:28:31.327Z,89.00
2017-09-24T07:30:59.883Z,89.16
2017-09-24T07:33:28.226Z,89.74
2017-09-24T07:35:56.576Z,90.05
2017-09-24T07:38:24.922Z,89.14
2017-09-24T07:40:53.266Z,88.46
2017-09-24T07:43:21.746Z,87.32
2017-09-24T07:45:50.098Z,86.88
2017-09-24T07:48:18.434Z,87.29
2017-09-24T07:50:46.778Z,86.38
2017-09-24T07:53:15.127Z,87.09
2017-09-24T07:55:43.499Z,85.86
2017-09-24T07:58:11.854Z,85.60
2017-09-24T08:00:40.198Z,85.41
2017-09-24T08:03:08.551Z,85.00
2017-09-24T08:05:36.890Z,84.75
2017-09-24T08:08:05.271Z,84.87
2017-09-24T08:10:33.611Z,84.43
2017-09-24T08:13:01.950Z,83.72
2017-09-24T08:15:30.298Z,82.17
2017-09-24T08:17:58.640Z,81.07
2017-09-24T08:20:27.015Z,78.90
2017-09-24T08:22:55.361Z,76.72
2017-09-24T08:25:23.734Z,72.84
2017-09-24T08:27:52.097Z,72.06
2017-09-24T08:30:20.440Z,70.92
2017-09-24T08:32:48.790Z,70.58
2017-09-24T08:35:17.139Z,70.94
2017-09-24T08:37:45.483Z,71.59
2017-09-24T08:40:13.831Z,72.25
2017-09-24T08:42:42.179Z,74.66
2017-09-24T08:45:10.538Z,75.57
2017-09-24T08:47:38.931Z,75.49
2017-09-24T08:50:07.284Z,74.68
2017-09-24T08:52:35.635Z,74.58
2017-09-24T08:55:03.975Z,75.57
2017-09-24T08:57:32.332Z,74.98
2017-09-24T09:00:00.802Z,75.43
2017-09-24T09:02:29.146Z,75.25
2017-09-24T09:04:57.496Z,76.10
2017-09-24T09:07:25.843Z,74.87
2017-09-24T09:09:54.187Z,75.79
2017-09-24T09:12:22.643Z,76.11
2017-09-24T09:14:50.995Z,75.38
2017-09-24T09:17:19.341Z,74.36
2017-09-24T09:19:47.690Z,74.45
2017-09-24T09:22:16.037Z,73.83
2017-09-24T09:24:44.386Z,72.49
2017-09-24T09:27:12.733Z,72.16
2017-09-24T09:29:41.213Z,71.81
2017-09-24T09:32:09.555Z,69.02
2017-09-24T09:34:37.911Z,69.95
2017-09-24T09:37:06.251Z,70.31
2017-09-24T09:39:34.595Z,71.20
2017-09-24T09:42:03.066Z,70.78
2017-09-24T09:44:43.214Z,70.23
2017-09-24T09:47:23.215Z,70.04
2017-09-24T09:49:51.566Z,67.75
2017-09-24T09:52:19.907Z,66.32
2017-09-24T09:54:48.282Z,64.36
2017-09-24T09:57:16.632Z,60.88
2017-09-24T09:59:45.083Z,60.62
2017-09-24T10:02:13.434Z,61.97
2017-09-24T10:04:41.781Z,59.99
2017-09-24T10:07:21.811Z,57.76
2017-09-24T10:10:01.707Z,54.95
2017-09-24T10:12:30.057Z,57.40
2017-09-24T10:14:58.415Z,57.64
2017-09-24T10:17:26.784Z,57.95
2017-09-24T10:19:55.130Z,59.13
2017-09-24T10:22:23.606Z,60.74
2017-09-24T10:24:51.954Z,59.63
2017-09-24T10:27:20.301Z,58.89
2017-09-24T10:30:00.407Z,61.08
2017-09-24T10:32:28.799Z,62.94
2017-09-24T10:34:57.147Z,62.68
2017-09-24T10:37:25.496Z,61.37
2017-09-24T10:39:53.868Z,60.64
2017-09-24T10:42:22.246Z,59.50
2017-09-24T10:44:50.623Z,58.47
2017-09-24T10:47:19.322Z,55.96
2017-09-24T10:49:48.078Z,53.91
2017-09-24T10:52:16.495Z,53.10
2017-09-24T10:54:44.858Z,51.01
2017-09-24T10:57:13.208Z,52.25
2017-09-24T10:59:41.567Z,52.29
2017-09-24T11:02:09.951Z,53.68
2017-09-24T11:04:38.315Z,54.67
2017-09-24T11:07:06.715Z,56.25
2017-09-24T11:09:36.017Z,56.38
2017-09-24T11:12:04.511Z,57.51
2017-09-24T11:14:37.595Z,59.65
2017-09-24T11:17:06.277Z,60.95
2017-09-24T11:19:34.746Z,62.04
2017-09-24T11:22:04.378Z,62.53
2017-09-24T11:24:32.874Z,62.70
2017-09-24T11:27:01.380Z,63.33
2017-09-24T11:29:29.927Z,63.63
2017-09-24T11:31:58.403Z,63.14
2017-09-24T11:34:26.875Z,61.71
2017-09-24T11:36:55.400Z,60.79
2017-09-24T11:39:23.900Z,59.87
2017-09-24T11:41:52.482Z,57.88
2017-09-24T11:44:20.980Z,57.18
2017-09-24T11:46:51.288Z,55.68
2017-09-24T11:49:20.413Z,56.13
2017-09-24T11:51:50.823Z,55.07
2017-09-24T11:54:20.142Z,54.34
2017-09-24T11:56:49.240Z,53.55
2017-09-24T11:59:17.800Z,56.96
2017-09-24T12:01:46.386Z,57.00
2017-09-24T12:04:18.926Z,57.55
2017-09-24T12:06:49.054Z,54.42
2017-09-24T12:09:17.508Z,53.77
2017-09-24T12:11:46.361Z,54.61
2017-09-24T12:14:16.851Z,56.19
2017-09-24T12:16:47.273Z,54.96
2017-09-24T12:19:15.929Z,54.14
2017-09-24T12:21:44.400Z,52.45
2017-09-24T12:24:16.961Z,49.56
2017-09-24T12:26:45.860Z,50.29
2017-09-24T12:29:14.556Z,50.42
2017-09-24T12:31:43.211Z,50.12
2017-09-24T12:34:11.676Z,51.37
2017-09-24T12:37:00.197Z,52.21
2017-09-24T12:39:37.833Z,52.92
2017-09-24T12:42:06.772Z,52.02
2017-09-24T12:44:37.033Z,52.35
2017-09-24T12:47:10.362Z,52.95
2017-09-24T12:49:39.701Z,53.52
2017-09-24T12:52:09.937Z,52.98
2017-09-24T13:00:33.404Z,51.80
2017-09-24T13:12:22.622Z,54.41
2017-09-24T13:16:52.570Z,57.75
2017-09-24T13:22:52.101Z,59.41
2017-09-24T13:28:32.257Z,57.96
2017-09-24T13:34:29.396Z,58.31
2017-09-24T13:43:17.090Z,57.09
2017-09-24T13:52:23.602Z,56.03
2017-09-24T13:54:53.130Z,54.86
2017-09-24T13:57:21.996Z,56.06
2017-09-24T13:59:50.662Z,55.63
2017-09-24T14:02:19.583Z,55.65
2017-09-24T14:04:47.969Z,56.30
2017-09-24T14:07:16.300Z,56.19
2017-09-24T14:09:45.799Z,56.73
2017-09-24T16:07:42.179Z,72.43
2017-09-24T16:10:10.519Z,71.88
2017-09-24T16:12:38.867Z,71.90
2017-09-24T16:15:07.211Z,73.23
2017-09-24T16:17:35.554Z,73.80
2017-09-24T16:20:03.923Z,74.22
2017-09-24T16:22:32.270Z,74.06
2017-09-24T16:25:00.642Z,73.93
2017-09-24T16:27:29.011Z,73.40
2017-09-24T16:29:57.467Z,73.43
2017-09-24T16:32:25.854Z,74.83
2017-09-24T16:34:54.198Z,75.69
2017-09-24T16:37:22.571Z,76.13
2017-09-24T16:39:50.902Z,75.65
2017-09-24T16:42:19.551Z,74.87
2017-09-24T16:44:47.904Z,75.18
2017-09-24T16:47:16.309Z,75.56
2017-09-24T16:49:44.680Z,75.97
2017-09-24T16:52:13.040Z,76.58
2017-09-24T16:54:41.418Z,77.53
2017-09-24T16:57:09.749Z,77.86
2017-09-24T16:59:38.114Z,78.03
2017-09-24T17:02:06.608Z,79.95
2017-09-24T17:04:34.974Z,81.44
2017-09-24T17:07:03.491Z,82.29
2017-09-24T17:09:31.845Z,83.37
2017-09-24T17:12:00.181Z,83.57
2017-09-24T17:14:28.566Z,83.89
2017-09-24T17:16:57.743Z,84.10
2017-09-24T17:19:26.114Z,83.96
2017-09-24T17:21:54.451Z,82.51
2017-09-24T17:24:22.814Z,82.90
2017-09-24T17:26:51.148Z,82.86
2017-09-24T17:29:19.491Z,82.28
2017-09-24T17:31:47.842Z,82.86
2017-09-24T17:34:16.183Z,82.63
2017-09-24T17:36:44.525Z,83.27
2017-09-24T17:39:12.866Z,83.25
2017-09-24T17:41:41.203Z,83.66
2017-09-24T17:44:09.546Z,84.44
2017-09-24T17:46:37.907Z,84.01
2017-09-24T17:49:06.270Z,83.11
2017-09-24T17:51:34.627Z,82.19
2017-09-24T17:54:03.195Z,82.21
2017-09-24T17:56:31.543Z,82.58
2017-09-24T17:58:59.919Z,82.31
2017-09-24T18:01:28.248Z,82.43
2017-09-24T18:03:56.610Z,82.60
2017-09-24T18:06:24.960Z,82.87
2017-09-24T18:08:53.319Z,82.73
2017-09-24T18:11:21.669Z,82.42
2017-09-24T18:13:50.016Z,82.82
2017-09-24T18:16:18.382Z,82.83
2017-09-24T18:18:46.718Z,82.95
2017-09-24T18:21:15.087Z,83.12
2017-09-24T18:23:43.460Z,83.40
2017-09-24T18:26:11.850Z,83.60
2017-09-24T18:28:40.220Z,83.65
2017-09-24T18:31:08.576Z,84.15
2017-09-24T18:33:36.950Z,84.60
2017-09-24T18:36:05.306Z,84.58
2017-09-24T18:38:33.694Z,84.67
2017-09-24T18:41:02.455Z,84.11
2017-09-24T18:43:30.880Z,84.24
2017-09-24T18:45:59.864Z,84.21
2017-09-24T18:48:28.343Z,84.85
2017-09-24T18:50:56.690Z,84.90
2017-09-24T18:53:25.047Z,85.24
2017-09-24T18:55:53.607Z,84.86
2017-09-24T18:58:27.758Z,85.22
2017-09-24T19:00:57.668Z,85.26
2017-09-24T19:03:26.563Z,86.23
2017-09-24T19:05:54.911Z,86.18
2017-09-24T19:08:23.265Z,86.68
2017-09-24T19:10:51.639Z,86.42
2017-09-24T19:13:19.995Z,86.54
2017-09-24T19:15:48.474Z,87.03
2017-09-24T19:18:17.111Z,86.83
2017-09-24T19:20:45.810Z,87.89
2017-09-24T19:23:14.183Z,87.46
2017-09-24T19:25:42.589Z,86.80
2017-09-24T19:28:11.223Z,87.21
2017-09-24T19:30:39.574Z,87.31
2017-09-24T19:33:07.918Z,86.77
2017-09-24T19:35:36.280Z,87.22
2017-09-24T19:38:04.626Z,87.72
2017-09-24T19:40:33.010Z,87.06
2017-09-24T19:43:01.359Z,86.40
2017-09-24T19:45:29.707Z,86.76
2017-09-24T19:47:58.086Z,87.30
2017-09-24T19:50:26.434Z,86.80
2017-09-24T19:52:54.809Z,86.62
2017-09-24T19:55:23.157Z,87.41
2017-09-24T19:57:51.534Z,88.03
2017-09-24T20:00:19.908Z,87.51
2017-09-24T20:02:48.266Z,86.82
2017-09-24T20:05:16.643Z,87.91
2017-09-24T20:07:45.016Z,87.26
2017-09-24T20:10:13.386Z,88.15
2017-09-24T20:12:41.855Z,86.93
2017-09-24T20:15:10.471Z,86.70
2017-09-24T20:17:38.825Z,87.16
2017-09-24T20:20:07.166Z,87.71
2017-09-24T20:22:35.518Z,88.58
2017-09-24T20:25:03.872Z,88.72
2017-09-24T20:27:32.251Z,89.04
2017-09-24T20:30:00.632Z,89.40
2017-09-24T20:32:28.979Z,89.05
2017-09-24T20:34:57.358Z,89.05
2017-09-24T20:37:25.703Z,89.24
2017-09-24T20:39:54.085Z,89.23
2017-09-24T20:42:22.442Z,88.88
2017-09-24T20:44:50.816Z,88.19
2017-09-24T20:47:19.166Z,87.63
2017-09-24T20:49:47.524Z,87.04
2017-09-24T20:52:15.876Z,86.79
2017-09-24T20:54:44.230Z,86.80
2017-09-24T20:57:12.579Z,86.69
2017-09-24T20:59:41.035Z,87.10
2017-09-24T21:02:09.399Z,87.92
2017-09-24T21:04:37.738Z,87.84
2017-09-24T21:07:06.094Z,87.79
2017-09-24T21:09:34.466Z,87.75
2017-09-24T21:12:02.820Z,88.07
2017-09-24T21:14:31.167Z,88.47
2017-09-24T21:16:59.522Z,88.74
2017-09-24T21:19:27.876Z,89.16
2017-09-24T21:21:56.250Z,88.57
2017-09-24T21:24:24.623Z,88.18
2017-09-24T21:26:52.971Z,87.82
2017-09-24T21:29:21.320Z,87.84
2017-09-24T21:31:49.671Z,87.91
2017-09-24T21:34:18.019Z,86.70
2017-09-24T21:36:46.392Z,86.75
2017-09-24T21:39:14.763Z,85.85
2017-09-24T21:41:43.114Z,86.19
2017-09-24T21:44:12.242Z,86.21
2017-09-24T21:46:40.590Z,86.29
2017-09-24T21:49:08.942Z,86.66
2017-09-24T21:51:37.288Z,86.77
2017-09-24T21:54:05.636Z,86.63
2017-09-24T21:56:34.011Z,87.00
2017-09-24T21:59:02.395Z,86.92
2017-09-24T22:01:30.771Z,87.18
2017-09-24T22:03:59.117Z,87.69
2017-09-24T22:06:27.495Z,87.82
2017-09-24T22:08:55.841Z,87.52
2017-09-24T22:11:24.200Z,87.84
2017-09-24T22:13:52.543Z,87.88
2017-09-24T22:16:20.892Z,87.86
2017-09-24T22:18:49.388Z,87.45
2017-09-24T22:21:17.734Z,88.15
2017-09-24T22:23:46.085Z,87.64
2017-09-24T22:26:14.427Z,87.43
2017-09-24T22:28:42.776Z,87.57
2017-09-24T22:31:11.126Z,87.47
2017-09-24T22:33:39.533Z,87.43
2017-09-24T22:36:07.929Z,87.41
2017-09-24T22:38:36.254Z,87.71
2017-09-24T22:41:04.730Z,88.16
2017-09-24T22:43:33.078Z,88.09
2017-09-24T22:46:01.762Z,88.47
2017-09-24T22:48:30.135Z,89.20
2017-09-24T22:50:58.485Z,89.26
2017-09-24T22:53:26.830Z,89.64
2017-09-24T22:55:55.227Z,89.36
2017-09-24T22:58:23.596Z,88.95
2017-09-24T23:00:51.972Z,89.28
2017-09-24T23:03:20.319Z,89.50
2017-09-24T23:05:48.695Z,88.37
2017-09-24T23:08:17.044Z,88.27
2017-09-24T23:10:45.398Z,87.73
2017-09-24T23:13:13.750Z,88.19
2017-09-24T23:15:42.095Z,88.76
2017-09-24T23:18:10.470Z,88.04
2017-09-24T23:20:38.820Z,89.06
2017-09-24T23:23:07.158Z,88.85
2017-09-24T23:25:35.635Z,87.83
2017-09-24T23:28:03.983Z,88.04
2017-09-24T23:30:32.338Z,88.87
2017-09-24T23:33:00.682Z,88.69
2017-09-24T23:35:29.034Z,88.72
2017-09-24T23:37:57.407Z,89.58
2017-09-24T23:40:25.779Z,89.07
2017-09-24T23:42:54.149Z,88.83
2017-09-24T23:45:22.525Z,88.37
2017-09-24T23:47:50.867Z,89.30
2017-09-24T23:50:19.214Z,89.55
2017-09-24T23:52:47.595Z,89.49
2017-09-24T23:55:15.943Z,88.90
2017-09-24T23:57:44.323Z,88.52
